Blue Grass (LEX)

 

Airport Diagram
Current Weather/Forecast (VFR Conditions)
METAR KLEX 132254Z 36007KT 10SM FEW046 29/21 A2998 RMK AO2 SLP143 T02890206
TAF KLEX 131723Z 1318/1418 VRB04KT P6SM SCT040 FM140000 VRB03KT P6SM BKN200 TEMPO 1409/1412 5SM BR FM141400 VRB04KT P6SM BKN090

Airport Information

All Charts
General
Chart Name View
AIRPORT DIAGRAM
TAKEOFF MINIMUMS
ALTERNATE MINIMUMS
HOT SPOT

Arrivals
Chart Name Download
CLEGG FIVE

Approaches
Chart Name Download
ILS OR LOC RWY 04
ILS OR LOC RWY 22
RNAV (GPS) RWY 04
RNAV (GPS) RWY 09
RNAV (GPS) RWY 22
RNAV (GPS) RWY 27
VOR-A


Airport Statistics
Departures Arrivals Local
All Collected Stats since June 2016: 289 255 7
2020 Stats: 95 99 2
August Stats: 4 5 0

Inbound Traffic (Arrivals) - 0

No inbound traffic.


Outbound Traffic (Departures) - 0

No outbound traffic.


Local Traffic (Pattern) - 0

No local traffic.